sensor_id;sensor_type;location;lat;lon;timestamp;pressure;altitude;pressure_sealevel;temperature;humidity
15272;BME280;7737;51.578;7.268;2022-11-12T00:00:49;102669.41;;;4.62;100.00
15272;BME280;7737;51.578;7.268;2022-11-12T00:03:18;102662.31;;;4.49;100.00
15272;BME280;7737;51.578;7.268;2022-11-12T00:05:44;102664.06;;;4.53;100.00
15272;BME280;7737;51.578;7.268;2022-11-12T00:08:11;102661.56;;;4.72;100.00
15272;BME280;7737;51.578;7.268;2022-11-12T00:10:37;102662.38;;;4.58;100.00
15272;BME280;7737;51.578;7.268;2022-11-12T00:13:04;102666.75;;;4.59;100.00
15272;BME280;7737;51.578;7.268;2022-11-12T00:15:31;102665.84;;;4.54;100.00
15272;BME280;7737;51.578;7.268;2022-11-12T00:17:58;102669.44;;;4.65;100.00
15272;BME280;7737;51.578;7.268;2022-11-12T00:20:26;102669.44;;;4.65;100.00
15272;BME280;7737;51.578;7.268;2022-11-12T00:22:52;102671.13;;;4.54;100.00
15272;BME280;7737;51.578;7.268;2022-11-12T00:25:18;102681.44;;;4.26;100.00
15272;BME280;7737;51.578;7.268;2022-11-12T00:27:45;102674.31;;;4.13;100.00
15272;BME280;7737;51.578;7.268;2022-11-12T00:30:12;102684.91;;;4.21;100.00
15272;BME280;7737;51.578;7.268;2022-11-12T00:32:38;102680.56;;;4.24;100.00
15272;BME280;7737;51.578;7.268;2022-11-12T00:35:06;102680.53;;;4.20;100.00
15272;BME280;7737;51.578;7.268;2022-11-12T00:37:34;102686.63;;;4.14;100.00
15272;BME280;7737;51.578;7.268;2022-11-12T00:40:01;102681.50;;;4.31;100.00
15272;BME280;7737;51.578;7.268;2022-11-12T00:42:27;102688.56;;;4.37;100.00
15272;BME280;7737;51.578;7.268;2022-11-12T00:44:54;102685.78;;;4.21;100.00
15272;BME280;7737;51.578;7.268;2022-11-12T00:47:20;102684.78;;;4.04;100.00
15272;BME280;7737;51.578;7.268;2022-11-12T00:49:47;102682.19;;;4.09;100.00
15272;BME280;7737;51.578;7.268;2022-11-12T00:52:13;102690.88;;;3.99;100.00
15272;BME280;7737;51.578;7.268;2022-11-12T00:54:41;102682.19;;;4.10;100.00
15272;BME280;7737;51.578;7.268;2022-11-12T00:57:08;102688.34;;;4.09;100.00
15272;BME280;7737;51.578;7.268;2022-11-12T00:59:34;102697.25;;;4.23;100.00
15272;BME280;7737;51.578;7.268;2022-11-12T01:02:01;102697.22;;;4.20;100.00
15272;BME280;7737;51.578;7.268;2022-11-12T01:04:27;102694.69;;;4.34;100.00
15272;BME280;7737;51.578;7.268;2022-11-12T01:06:54;102691.91;;;4.17;100.00
15272;BME280;7737;51.578;7.268;2022-11-12T01:09:20;102698.00;;;4.12;100.00
15272;BME280;7737;51.578;7.268;2022-11-12T01:11:48;102699.78;;;4.14;100.00
15272;BME280;7737;51.578;7.268;2022-11-12T01:14:15;102693.47;;;3.97;100.00
15272;BME280;7737;51.578;7.268;2022-11-12T01:16:41;102698.84;;;4.06;100.00
15272;BME280;7737;51.578;7.268;2022-11-12T01:19:10;102693.47;;;3.94;100.00
15272;BME280;7737;51.578;7.268;2022-11-12T01:21:39;102695.94;;;3.79;100.00
15272;BME280;7737;51.578;7.268;2022-11-12T01:24:06;102694.22;;;3.83;100.00
15272;BME280;7737;51.578;7.268;2022-11-12T01:26:33;102702.16;;;3.87;100.00
15272;BME280;7737;51.578;7.268;2022-11-12T01:29:01;102693.28;;;3.76;100.00
15272;BME280;7737;51.578;7.268;2022-11-12T01:31:30;102697.56;;;3.68;100.00
15272;BME280;7737;51.578;7.268;2022-11-12T01:33:58;102700.22;;;3.71;100.00
15272;BME280;7737;51.578;7.268;2022-11-12T01:36:25;102695.72;;;3.56;100.00
15272;BME280;7737;51.578;7.268;2022-11-12T01:38:53;102702.75;;;3.59;100.00
15272;BME280;7737;51.578;7.268;2022-11-12T01:41:22;102706.31;;;3.65;100.00
15272;BME280;7737;51.578;7.268;2022-11-12T01:44:12;102700.19;;;3.68;100.00
15272;BME280;7737;51.578;7.268;2022-11-12T01:46:45;102696.72;;;3.67;100.00
15272;BME280;7737;51.578;7.268;2022-11-12T01:49:15;102695.00;;;3.74;100.00
15272;BME280;7737;51.578;7.268;2022-11-12T01:51:47;102698.47;;;3.67;100.00
15272;BME280;7737;51.578;7.268;2022-11-12T01:54:17;102705.47;;;3.65;100.00
15272;BME280;7737;51.578;7.268;2022-11-12T01:56:45;102702.91;;;3.73;100.00
15272;BME280;7737;51.578;7.268;2022-11-12T01:59:17;102703.63;;;3.61;100.00
15272;BME280;7737;51.578;7.268;2022-11-12T02:01:45;102715.47;;;3.26;100.00
15272;BME280;7737;51.578;7.268;2022-11-12T02:04:11;102707.03;;;3.51;100.00
15272;BME280;7737;51.578;7.268;2022-11-12T02:06:39;102702.75;;;3.59;100.00
15272;BME280;7737;51.578;7.268;2022-11-12T02:09:07;102707.94;;;3.51;100.00
15272;BME280;7737;51.578;7.268;2022-11-12T02:11:34;102700.81;;;3.44;100.00
15272;BME280;7737;51.578;7.268;2022-11-12T02:14:01;102699.84;;;3.33;100.00
15272;BME280;7737;51.578;7.268;2022-11-12T02:16:31;102698.06;;;3.31;100.00
15272;BME280;7737;51.578;7.268;2022-11-12T02:18:58;102696.31;;;3.34;100.00
15272;BME280;7737;51.578;7.268;2022-11-12T02:21:27;102697.16;;;3.32;100.00
15272;BME280;7737;51.578;7.268;2022-11-12T02:24:00;102691.94;;;3.35;100.00
15272;BME280;7737;51.578;7.268;2022-11-12T02:26:30;102678.03;;;3.45;100.00
15272;BME280;7737;51.578;7.268;2022-11-12T02:28:58;102677.28;;;3.55;100.00
15272;BME280;7737;51.578;7.268;2022-11-12T02:31:25;102672.81;;;3.46;100.00
15272;BME280;7737;51.578;7.268;2022-11-12T02:33:51;102673.66;;;3.44;100.00
15272;BME280;7737;51.578;7.268;2022-11-12T02:36:18;102682.25;;;3.28;100.00
15272;BME280;7737;51.578;7.268;2022-11-12T02:38:46;102682.25;;;3.28;100.00
15272;BME280;7737;51.578;7.268;2022-11-12T02:41:13;102677.00;;;3.28;100.00
15272;BME280;7737;51.578;7.268;2022-11-12T02:43:40;102680.44;;;3.22;100.00
15272;BME280;7737;51.578;7.268;2022-11-12T02:46:06;102681.28;;;3.21;100.00
15272;BME280;7737;51.578;7.268;2022-11-12T03:33:46;102690.53;;;2.90;100.00
15272;BME280;7737;51.578;7.268;2022-11-12T03:36:11;102679.97;;;2.86;100.00
15272;BME280;7737;51.578;7.268;2022-11-12T03:38:38;102677.47;;;2.96;100.00
15272;BME280;7737;51.578;7.268;2022-11-12T03:41:05;102683.59;;;2.95;100.00
15272;BME280;7737;51.578;7.268;2022-11-12T03:43:31;102683.72;;;3.07;100.00
15272;BME280;7737;51.578;7.268;2022-11-12T03:45:58;102681.84;;;2.97;100.00
15272;BME280;7737;51.578;7.268;2022-11-12T03:48:24;102683.63;;;2.98;100.00
15272;BME280;7737;51.578;7.268;2022-11-12T03:50:56;102679.19;;;2.94;100.00
15272;BME280;7737;51.578;7.268;2022-11-12T03:53:23;102676.69;;;3.03;100.00
15272;BME280;7737;51.578;7.268;2022-11-12T03:55:49;102678.25;;;2.89;100.00
15272;BME280;7737;51.578;7.268;2022-11-12T03:58:16;102669.59;;;2.99;100.00
15272;BME280;7737;51.578;7.268;2022-11-12T04:00:43;102667.03;;;3.02;100.00
15272;BME280;7737;51.578;7.268;2022-11-12T04:03:09;102670.50;;;3.00;100.00
15272;BME280;7737;51.578;7.268;2022-11-12T04:05:36;102666.09;;;2.97;100.00
15272;BME280;7737;51.578;7.268;2022-11-12T04:08:22;102649.38;;;2.91;100.00
15272;BME280;7737;51.578;7.268;2022-11-12T04:11:02;102653.75;;;2.90;100.00
15272;BME280;7737;51.578;7.268;2022-11-12T04:13:29;102647.63;;;2.91;100.00
15272;BME280;7737;51.578;7.268;2022-11-12T04:15:58;102653.66;;;2.84;100.00
15272;BME280;7737;51.578;7.268;2022-11-12T04:18:44;102648.38;;;2.81;100.00
15272;BME280;7737;51.578;7.268;2022-11-12T04:21:31;102644.88;;;2.82;100.00
15272;BME280;7737;51.578;7.268;2022-11-12T04:24:22;102634.09;;;2.61;100.00
15272;BME280;7737;51.578;7.268;2022-11-12T04:27:09;102633.25;;;2.65;100.00
15272;BME280;7737;51.578;7.268;2022-11-12T04:29:37;102633.34;;;2.70;100.00
15272;BME280;7737;51.578;7.268;2022-11-12T04:32:21;102631.81;;;2.87;100.00
15272;BME280;7737;51.578;7.268;2022-11-12T04:34:48;102632.69;;;2.87;100.00
15272;BME280;7737;51.578;7.268;2022-11-12T04:37:15;102638.69;;;2.79;100.00
15272;BME280;7737;51.578;7.268;2022-11-12T04:39:43;102632.66;;;2.84;100.00
15272;BME280;7737;51.578;7.268;2022-11-12T04:42:09;102629.22;;;2.90;100.00
15272;BME280;7737;51.578;7.268;2022-11-12T04:44:54;102638.00;;;2.90;100.00
15272;BME280;7737;51.578;7.268;2022-11-12T04:47:29;102632.50;;;2.74;100.00
15272;BME280;7737;51.578;7.268;2022-11-12T04:49:57;102629.97;;;2.81;100.00
15272;BME280;7737;51.578;7.268;2022-11-12T04:52:24;102629.28;;;2.94;100.00
15272;BME280;7737;51.578;7.268;2022-11-12T04:54:52;102624.06;;;2.97;100.00
15272;BME280;7737;51.578;7.268;2022-11-12T04:57:19;102635.44;;;2.96;100.00
15272;BME280;7737;51.578;7.268;2022-11-12T04:59:46;102623.13;;;2.91;100.00
15272;BME280;7737;51.578;7.268;2022-11-12T05:02:13;102630.63;;;2.65;100.00
15272;BME280;7737;51.578;7.268;2022-11-12T05:04:39;102633.50;;;2.80;100.00
15272;BME280;7737;51.578;7.268;2022-11-12T05:07:06;102628.91;;;2.64;100.00
15272;BME280;7737;51.578;7.268;2022-11-12T05:09:33;102632.47;;;2.69;100.00
15272;BME280;7737;51.578;7.268;2022-11-12T05:12:01;102629.84;;;2.71;100.00
15272;BME280;7737;51.578;7.268;2022-11-12T05:14:28;102634.34;;;2.78;100.00
15272;BME280;7737;51.578;7.268;2022-11-12T05:16:55;102632.56;;;2.75;100.00
15272;BME280;7737;51.578;7.268;2022-11-12T05:19:21;102625.53;;;2.76;100.00
15272;BME280;7737;51.578;7.268;2022-11-12T05:21:48;102618.44;;;2.70;100.00
15272;BME280;7737;51.578;7.268;2022-11-12T05:24:34;102613.09;;;2.61;100.00
15272;BME280;7737;51.578;7.268;2022-11-12T05:27:04;102609.59;;;2.62;100.00
15272;BME280;7737;51.578;7.268;2022-11-12T05:29:31;102607.94;;;2.67;100.00
15272;BME280;7737;51.578;7.268;2022-11-12T05:31:58;102603.50;;;2.63;100.00
15272;BME280;7737;51.578;7.268;2022-11-12T05:34:24;102610.47;;;2.61;100.00
15272;BME280;7737;51.578;7.268;2022-11-12T05:36:51;102600.78;;;2.57;100.00
15272;BME280;7737;51.578;7.268;2022-11-12T05:39:18;102595.75;;;2.72;100.00
15272;BME280;7737;51.578;7.268;2022-11-12T05:41:44;102593.19;;;2.78;100.00
15272;BME280;7737;51.578;7.268;2022-11-12T05:44:12;102601.03;;;2.75;100.00
15272;BME280;7737;51.578;7.268;2022-11-12T05:46:39;102611.28;;;2.57;100.00
15272;BME280;7737;51.578;7.268;2022-11-12T05:49:06;102602.56;;;2.58;100.00
15272;BME280;7737;51.578;7.268;2022-11-12T05:51:32;102612.25;;;2.65;100.00
15272;BME280;7737;51.578;7.268;2022-11-12T05:54:00;102607.84;;;2.61;100.00
15272;BME280;7737;51.578;7.268;2022-11-12T05:56:26;102611.28;;;2.57;100.00
15272;BME280;7737;51.578;7.268;2022-11-12T05:58:53;102609.56;;;2.59;100.00
15272;BME280;7737;51.578;7.268;2022-11-12T06:01:21;102606.94;;;2.59;100.00
15272;BME280;7737;51.578;7.268;2022-11-12T06:03:47;102601.78;;;2.67;100.00
15272;BME280;7737;51.578;7.268;2022-11-12T06:06:14;102602.69;;;2.70;100.00
15272;BME280;7737;51.578;7.268;2022-11-12T06:08:40;102615.72;;;2.63;100.00
15272;BME280;7737;51.578;7.268;2022-11-12T06:11:07;102607.94;;;2.67;100.00
15272;BME280;7737;51.578;7.268;2022-11-12T06:13:33;102614.03;;;2.68;100.00
15272;BME280;7737;51.578;7.268;2022-11-12T06:16:00;102607.72;;;2.52;100.00
15272;BME280;7737;51.578;7.268;2022-11-12T06:18:28;102611.22;;;2.51;100.00
15272;BME280;7737;51.578;7.268;2022-11-12T06:21:00;102607.75;;;2.55;100.00
15272;BME280;7737;51.578;7.268;2022-11-12T06:23:47;102617.09;;;2.35;100.00
15272;BME280;7737;51.578;7.268;2022-11-12T06:26:15;102616.38;;;2.45;100.00
15272;BME280;7737;51.578;7.268;2022-11-12T06:28:41;102619.88;;;2.47;100.00
15272;BME280;7737;51.578;7.268;2022-11-12T06:31:08;102617.31;;;2.52;100.00
15272;BME280;7737;51.578;7.268;2022-11-12T06:33:36;102620.06;;;2.59;100.00
15272;BME280;7737;51.578;7.268;2022-11-12T06:36:04;102618.34;;;2.63;100.00
15272;BME280;7737;51.578;7.268;2022-11-12T06:38:32;102621.75;;;2.54;100.00
15272;BME280;7737;51.578;7.268;2022-11-12T06:40:59;102619.13;;;2.54;100.00
15272;BME280;7737;51.578;7.268;2022-11-12T06:43:28;102627.06;;;2.60;100.00
15272;BME280;7737;51.578;7.268;2022-11-12T06:45:57;102634.25;;;2.73;100.00
15272;BME280;7737;51.578;7.268;2022-11-12T06:48:24;102632.38;;;2.63;100.00
15272;BME280;7737;51.578;7.268;2022-11-12T06:50:52;102635.94;;;2.68;100.00
15272;BME280;7737;51.578;7.268;2022-11-12T06:53:19;102631.38;;;2.55;100.00
15272;BME280;7737;51.578;7.268;2022-11-12T06:55:45;102634.00;;;2.55;100.00
15272;BME280;7737;51.578;7.268;2022-11-12T06:58:12;102632.38;;;2.63;100.00
15272;BME280;7737;51.578;7.268;2022-11-12T07:00:38;102639.31;;;2.60;100.00
15272;BME280;7737;51.578;7.268;2022-11-12T07:03:05;102641.03;;;2.58;100.00
15272;BME280;7737;51.578;7.268;2022-11-12T07:05:34;102641.97;;;2.61;100.00
15272;BME280;7737;51.578;7.268;2022-11-12T07:08:03;102645.44;;;2.60;100.00
15272;BME280;7737;51.578;7.268;2022-11-12T07:10:29;102657.69;;;2.60;100.00
15272;BME280;7737;51.578;7.268;2022-11-12T07:12:56;102661.19;;;2.60;100.00
15272;BME280;7737;51.578;7.268;2022-11-12T07:15:22;102662.09;;;2.62;100.00
15272;BME280;7737;51.578;7.268;2022-11-12T07:17:49;102667.34;;;2.62;100.00
15272;BME280;7737;51.578;7.268;2022-11-12T07:20:16;102664.84;;;2.70;100.00
15272;BME280;7737;51.578;7.268;2022-11-12T07:22:42;102667.47;;;2.70;100.00
15272;BME280;7737;51.578;7.268;2022-11-12T07:25:10;102661.53;;;2.83;100.00
15272;BME280;7737;51.578;7.268;2022-11-12T07:27:37;102658.06;;;2.85;100.00
15272;BME280;7737;51.578;7.268;2022-11-12T07:30:04;102655.34;;;2.79;100.00
15272;BME280;7737;51.578;7.268;2022-11-12T07:32:31;102662.63;;;2.98;100.00
15272;BME280;7737;51.578;7.268;2022-11-12T07:34:58;102660.97;;;3.06;100.00
15272;BME280;7737;51.578;7.268;2022-11-12T07:37:24;102669.88;;;3.18;100.00
15272;BME280;7737;51.578;7.268;2022-11-12T07:39:51;102666.47;;;3.28;100.00
15272;BME280;7737;51.578;7.268;2022-11-12T07:42:20;102661.19;;;3.26;100.00
15272;BME280;7737;51.578;7.268;2022-11-12T07:44:46;102649.13;;;3.45;100.00
15272;BME280;7737;51.578;7.268;2022-11-12T07:47:13;102650.91;;;3.47;100.00
15272;BME280;7737;51.578;7.268;2022-11-12T07:49:39;102650.06;;;3.50;100.00
15272;BME280;7737;51.578;7.268;2022-11-12T07:52:06;102654.53;;;3.57;100.00
15272;BME280;7737;51.578;7.268;2022-11-12T07:54:32;102661.31;;;3.37;100.00
15272;BME280;7737;51.578;7.268;2022-11-12T07:56:59;102664.03;;;3.46;100.00
15272;BME280;7737;51.578;7.268;2022-11-12T07:59:27;102659.81;;;3.63;100.00
15272;BME280;7737;51.578;7.268;2022-11-12T08:01:53;102653.78;;;3.70;100.00
15272;BME280;7737;51.578;7.268;2022-11-12T08:04:20;102650.34;;;3.79;100.00
15272;BME280;7737;51.578;7.268;2022-11-12T08:06:47;102659.38;;;4.05;100.00
15272;BME280;7737;51.578;7.268;2022-11-12T08:09:14;102653.34;;;4.22;100.00
15272;BME280;7737;51.578;7.268;2022-11-12T08:11:40;102658.56;;;4.15;100.00
15272;BME280;7737;51.578;7.268;2022-11-12T08:14:07;102650.69;;;4.18;100.00
15272;BME280;7737;51.578;7.268;2022-11-12T08:16:35;102657.75;;;4.23;100.00
15272;BME280;7737;51.578;7.268;2022-11-12T08:19:01;102655.16;;;4.29;100.00
15272;BME280;7737;51.578;7.268;2022-11-12T08:21:28;102658.94;;;4.68;100.00
15272;BME280;7737;51.578;7.268;2022-11-12T08:23:54;102659.00;;;4.78;100.00
15272;BME280;7737;51.578;7.268;2022-11-12T08:26:22;102656.41;;;4.95;100.00
15272;BME280;7737;51.578;7.268;2022-11-12T08:28:50;102659.03;;;4.90;100.00
15272;BME280;7737;51.578;7.268;2022-11-12T08:31:19;102664.31;;;4.89;100.00
15272;BME280;7737;51.578;7.268;2022-11-12T08:33:48;102665.31;;;5.18;100.00
15272;BME280;7737;51.578;7.268;2022-11-12T08:36:16;102672.38;;;5.28;100.00
15272;BME280;7737;51.578;7.268;2022-11-12T08:38:43;102666.22;;;5.26;100.00
15272;BME280;7737;51.578;7.268;2022-11-12T08:41:13;102661.81;;;5.25;100.00
15272;BME280;7737;51.578;7.268;2022-11-12T08:43:41;102664.50;;;5.37;100.00
15272;BME280;7737;51.578;7.268;2022-11-12T08:46:08;102669.78;;;5.34;100.00
15272;BME280;7737;51.578;7.268;2022-11-12T08:48:35;102672.50;;;5.77;100.00
15272;BME280;7737;51.578;7.268;2022-11-12T08:51:05;102661.13;;;6.09;100.00
15272;BME280;7737;51.578;7.268;2022-11-12T08:53:32;102660.25;;;5.92;100.00
15272;BME280;7737;51.578;7.268;2022-11-12T08:55:59;102661.16;;;6.14;100.00
15272;BME280;7737;51.578;7.268;2022-11-12T08:58:26;102662.88;;;6.12;100.00
15272;BME280;7737;51.578;7.268;2022-11-12T09:00:53;102657.63;;;6.17;100.00
15272;BME280;7737;51.578;7.268;2022-11-12T09:03:22;102660.22;;;6.50;100.00
15272;BME280;7737;51.578;7.268;2022-11-12T09:05:50;102646.09;;;6.58;100.00
15272;BME280;7737;51.578;7.268;2022-11-12T09:08:20;102647.72;;;7.03;100.00
15272;BME280;7737;51.578;7.268;2022-11-12T09:10:48;102645.13;;;6.90;100.00
15272;BME280;7737;51.578;7.268;2022-11-12T09:13:15;102641.56;;;6.97;100.00
15272;BME280;7737;51.578;7.268;2022-11-12T09:15:42;102652.19;;;6.91;100.00
15272;BME280;7737;51.578;7.268;2022-11-12T09:18:12;102639.78;;;7.02;100.00
15272;BME280;7737;51.578;7.268;2022-11-12T09:20:39;102646.66;;;7.42;100.00
15272;BME280;7737;51.578;7.268;2022-11-12T09:23:07;102643.91;;;7.56;100.00
15272;BME280;7737;51.578;7.268;2022-11-12T09:25:36;102649.19;;;7.59;100.00
15272;BME280;7737;51.578;7.268;2022-11-12T09:28:07;102643.75;;;7.83;100.00
15272;BME280;7737;51.578;7.268;2022-11-12T09:30:35;102641.00;;;7.96;100.00
15272;BME280;7737;51.578;7.268;2022-11-12T09:33:02;102643.59;;;7.99;100.00
15272;BME280;7737;51.578;7.268;2022-11-12T09:35:29;102635.59;;;8.06;100.00
15272;BME280;7737;51.578;7.268;2022-11-12T09:37:56;102644.28;;;8.21;100.00
15272;BME280;7737;51.578;7.268;2022-11-12T09:40:31;102644.03;;;8.53;100.00
15272;BME280;7737;51.578;7.268;2022-11-12T09:43:00;102638.19;;;8.98;100.00
15272;BME280;7737;51.578;7.268;2022-11-12T09:45:35;102635.59;;;8.97;100.00
15272;BME280;7737;51.578;7.268;2022-11-12T09:48:05;102633.75;;;9.00;100.00
15272;BME280;7737;51.578;7.268;2022-11-12T09:50:37;102631.91;;;9.07;100.00
15272;BME280;7737;51.578;7.268;2022-11-12T09:53:11;102642.06;;;9.42;100.00
15272;BME280;7737;51.578;7.268;2022-11-12T09:55:41;102626.91;;;9.50;100.00
15272;BME280;7737;51.578;7.268;2022-11-12T09:58:11;102638.13;;;9.68;100.00
15272;BME280;7737;51.578;7.268;2022-11-12T10:00:40;102638.78;;;9.82;100.00
15272;BME280;7737;51.578;7.268;2022-11-12T10:03:13;102643.84;;;9.99;100.00
15272;BME280;7737;51.578;7.268;2022-11-12T10:05:48;102630.31;;;10.16;100.00
15272;BME280;7737;51.578;7.268;2022-11-12T10:08:32;102620.72;;;10.04;100.00
15272;BME280;7737;51.578;7.268;2022-11-12T10:11:12;102622.50;;;10.56;100.00
15272;BME280;7737;51.578;7.268;2022-11-12T10:13:52;102624.84;;;10.71;100.00
15272;BME280;7737;51.578;7.268;2022-11-12T10:16:36;102617.22;;;10.97;100.00
15272;BME280;7737;51.578;7.268;2022-11-12T10:19:29;102608.50;;;10.89;100.00
15272;BME280;7737;51.578;7.268;2022-11-12T10:22:06;102612.22;;;10.82;100.00
15272;BME280;7737;51.578;7.268;2022-11-12T10:24:37;102601.63;;;10.79;100.00
15272;BME280;7737;51.578;7.268;2022-11-12T10:27:14;102608.28;;;10.99;100.00
15272;BME280;7737;51.578;7.268;2022-11-12T10:29:48;102606.28;;;11.11;100.00
15272;BME280;7737;51.578;7.268;2022-11-12T10:32:17;102589.94;;;11.27;100.00
15272;BME280;7737;51.578;7.268;2022-11-12T10:34:44;102588.19;;;11.65;100.00
15272;BME280;7737;51.578;7.268;2022-11-12T10:37:14;102593.66;;;11.58;100.00
15272;BME280;7737;51.578;7.268;2022-11-12T10:39:44;102581.97;;;11.64;100.00
15272;BME280;7737;51.578;7.268;2022-11-12T10:42:14;102581.88;;;11.69;100.00
15272;BME280;7737;51.578;7.268;2022-11-12T10:44:41;102583.63;;;12.05;100.00
15272;BME280;7737;51.578;7.268;2022-11-12T10:47:33;102568.16;;;12.19;100.00
15272;BME280;7737;51.578;7.268;2022-11-12T10:50:19;102574.66;;;12.07;100.00
15272;BME280;7737;51.578;7.268;2022-11-12T10:52:54;102566.50;;;12.13;100.00
15272;BME280;7737;51.578;7.268;2022-11-12T10:55:23;102564.97;;;12.37;100.00
15272;BME280;7737;51.578;7.268;2022-11-12T10:58:04;102555.41;;;12.61;100.00
15272;BME280;7737;51.578;7.268;2022-11-12T11:00:31;102555.72;;;12.18;100.00
15272;BME280;7737;51.578;7.268;2022-11-12T11:03:01;102545.69;;;12.58;100.00
15272;BME280;7737;51.578;7.268;2022-11-12T11:05:31;102544.75;;;12.61;100.00
15272;BME280;7737;51.578;7.268;2022-11-12T11:07:58;102545.16;;;12.76;100.00
15272;BME280;7737;51.578;7.268;2022-11-12T11:10:28;102550.25;;;12.86;100.00
15272;BME280;7737;51.578;7.268;2022-11-12T11:13:08;102553.47;;;12.66;100.00
15272;BME280;7737;51.578;7.268;2022-11-12T11:15:36;102544.56;;;12.67;100.00
15272;BME280;7737;51.578;7.268;2022-11-12T11:18:07;102543.63;;;12.99;100.00
15272;BME280;7737;51.578;7.268;2022-11-12T11:20:41;102542.97;;;12.91;100.00
15272;BME280;7737;51.578;7.268;2022-11-12T11:23:14;102539.56;;;12.86;100.00
15272;BME280;7737;51.578;7.268;2022-11-12T11:25:43;102536.44;;;13.01;100.00
15272;BME280;7737;51.578;7.268;2022-11-12T11:28:17;102536.03;;;13.14;100.00
15272;BME280;7737;51.578;7.268;2022-11-12T11:30:51;102532.72;;;13.08;100.00
15272;BME280;7737;51.578;7.268;2022-11-12T11:33:28;102528.94;;;13.13;100.00
15272;BME280;7737;51.578;7.268;2022-11-12T11:36:05;102525.09;;;13.23;100.00
15272;BME280;7737;51.578;7.268;2022-11-12T11:38:46;102517.56;;;13.36;100.00
15272;BME280;7737;51.578;7.268;2022-11-12T11:41:41;102511.78;;;13.48;100.00
15272;BME280;7737;51.578;7.268;2022-11-12T11:44:19;102499.88;;;13.58;100.00
15272;BME280;7737;51.578;7.268;2022-11-12T11:46:57;102506.97;;;13.33;100.00
15272;BME280;7737;51.578;7.268;2022-11-12T11:49:37;102510.25;;;13.67;100.00
15272;BME280;7737;51.578;7.268;2022-11-12T11:52:18;102505.72;;;13.69;100.00
15272;BME280;7737;51.578;7.268;2022-11-12T11:55:01;102505.13;;;13.61;100.00
15272;BME280;7737;51.578;7.268;2022-11-12T11:57:38;102502.75;;;13.78;100.00
15272;BME280;7737;51.578;7.268;2022-11-12T12:00:12;102494.63;;;13.81;100.00
15272;BME280;7737;51.578;7.268;2022-11-12T12:02:51;102482.69;;;13.91;100.00
15272;BME280;7737;51.578;7.268;2022-11-12T12:05:32;102478.72;;;14.03;100.00
15272;BME280;7737;51.578;7.268;2022-11-12T12:08:07;102477.03;;;13.74;100.00
15272;BME280;7737;51.578;7.268;2022-11-12T12:10:46;102462.28;;;13.89;100.00
15272;BME280;7737;51.578;7.268;2022-11-12T12:13:20;102460.22;;;13.97;100.00
15272;BME280;7737;51.578;7.268;2022-11-12T12:16:00;102459.34;;;13.96;100.00
15272;BME280;7737;51.578;7.268;2022-11-12T12:18:36;102461.34;;;14.15;100.00
15272;BME280;7737;51.578;7.268;2022-11-12T12:21:11;102455.69;;;14.22;100.00
15272;BME280;7737;51.578;7.268;2022-11-12T12:23:42;102463.81;;;14.21;100.00
15272;BME280;7737;51.578;7.268;2022-11-12T12:26:13;102448.16;;;14.35;100.00
15272;BME280;7737;51.578;7.268;2022-11-12T12:28:44;102454.56;;;14.29;100.00
15272;BME280;7737;51.578;7.268;2022-11-12T12:31:15;102447.31;;;14.33;100.00
15272;BME280;7737;51.578;7.268;2022-11-12T12:33:47;102448.50;;;14.24;100.00
15272;BME280;7737;51.578;7.268;2022-11-12T12:36:23;102447.00;;;14.40;100.00
15272;BME280;7737;51.578;7.268;2022-11-12T12:39:06;102444.63;;;14.33;100.00
15272;BME280;7737;51.578;7.268;2022-11-12T12:41:42;102429.28;;;14.38;100.00
15272;BME280;7737;51.578;7.268;2022-11-12T12:44:10;102434.88;;;14.32;100.00
15272;BME280;7737;51.578;7.268;2022-11-12T12:46:39;102436.59;;;14.33;100.00
15272;BME280;7737;51.578;7.268;2022-11-12T12:49:13;102442.22;;;14.50;100.00
15272;BME280;7737;51.578;7.268;2022-11-12T12:51:43;102437.31;;;14.38;100.00
15272;BME280;7737;51.578;7.268;2022-11-12T12:57:31;102426.56;;;14.39;100.00
15272;BME280;7737;51.578;7.268;2022-11-12T13:00:24;102429.75;;;14.49;100.00
15272;BME280;7737;51.578;7.268;2022-11-12T13:02:51;102424.75;;;14.63;100.00
15272;BME280;7737;51.578;7.268;2022-11-12T13:05:26;102423.00;;;14.62;100.00
15272;BME280;7737;51.578;7.268;2022-11-12T13:08:00;102434.88;;;14.55;100.00
15272;BME280;7737;51.578;7.268;2022-11-12T13:10:49;102415.75;;;14.64;100.00
15272;BME280;7737;51.578;7.268;2022-11-12T13:13:33;102405.56;;;14.74;100.00
15272;BME280;7737;51.578;7.268;2022-11-12T13:16:00;102398.59;;;14.70;100.00
15272;BME280;7737;51.578;7.268;2022-11-12T13:18:55;102392.72;;;14.60;100.00
15272;BME280;7737;51.578;7.268;2022-11-12T13:21:22;102398.09;;;14.60;100.00
15272;BME280;7737;51.578;7.268;2022-11-12T13:23:51;102396.09;;;14.65;100.00
15272;BME280;7737;51.578;7.268;2022-11-12T13:26:55;102397.59;;;14.72;100.00
15272;BME280;7737;51.578;7.268;2022-11-12T13:29:40;102389.28;;;14.80;100.00
15272;BME280;7737;51.578;7.268;2022-11-12T13:32:28;102383.63;;;14.64;100.00
15272;BME280;7737;51.578;7.268;2022-11-12T13:35:14;102383.53;;;14.67;100.00
15272;BME280;7737;51.578;7.268;2022-11-12T13:37:46;102389.41;;;14.77;100.00
15272;BME280;7737;51.578;7.268;2022-11-12T13:40:16;102391.31;;;14.73;100.00
15272;BME280;7737;51.578;7.268;2022-11-12T13:42:46;102386.88;;;14.72;100.00
15272;BME280;7737;51.578;7.268;2022-11-12T13:45:17;102395.63;;;14.77;100.00
15272;BME280;7737;51.578;7.268;2022-11-12T13:47:44;102398.44;;;14.74;100.00
15272;BME280;7737;51.578;7.268;2022-11-12T13:50:15;102397.13;;;14.84;100.00
15272;BME280;7737;51.578;7.268;2022-11-12T13:52:44;102398.84;;;14.85;100.00
15272;BME280;7737;51.578;7.268;2022-11-12T13:55:13;102395.75;;;14.74;100.00
15272;BME280;7737;51.578;7.268;2022-11-12T13:57:47;102407.16;;;15.01;100.00
15272;BME280;7737;51.578;7.268;2022-11-12T14:00:20;102396.56;;;14.98;100.00
15272;BME280;7737;51.578;7.268;2022-11-12T14:02:50;102389.41;;;14.98;100.00